Kilkenny, Minnesota
Current Conditions -  °F | °C
As of 4:34 AM on Thursday 27 Nov 2014 (Local Time) from KFBL Reporting Station
Clear Clear  
Wind Chill: -15°   Ceiling: Unl
Heat Index:   Visibility: 10mi
Dew Point: -8°   Wind: 8mph
Humidity: 72%   Direction: 310°NW
Pressure: 30.45"   Gusts: NA
Location:  44.31°N, 93.57°W
Report Text: KFBL 271034Z AUTO 31007KT 10SM CLR M18/M22 A3045 RMK AO2
Loading
Personal Weather Stations






























Interactive Weather Map New forecast layout! Learn more

10-Day Weather Forecast

Advertisements
Track Severe Weather on mobile